ASX NZTH-NZAR

Flight info

Callsign ASX
Flight time 0h 17m
Altitude 2000
Route THAMES
Aircraft C172/L-V/N

Departure

Time 2026-04-27 04:02
Airport Thames Aerodrome (NZTH)

Arrival

Time 2026-04-27 04:19
Airport Ardmore Airport (NZAR)
Time Latitude Longitude Altitude Speed Heading
2026-04-27 03:52 -37.15733 175.55158 21 ft 0 kts 251°
2026-04-27 03:54 -37.15733 175.55156 21 ft 2 kts 246°
2026-04-27 03:55 -37.15775 175.55124 20 ft 11 kts 219°
2026-04-27 03:55 -37.15850 175.55043 20 ft 17 kts 213°
2026-04-27 03:55 -37.15948 175.54956 20 ft 14 kts 207°
2026-04-27 03:55 -37.15980 175.54932 20 ft 0 kts 211°
2026-04-27 03:56 -37.15984 175.54929 20 ft 3 kts 202°
2026-04-27 03:56 -37.16033 175.54925 21 ft 6 kts 171°
2026-04-27 03:57 -37.16138 175.54962 21 ft 16 kts 161°
2026-04-27 03:57 -37.16259 175.55014 22 ft 21 kts 162°
2026-04-27 03:57 -37.16381 175.55058 24 ft 9 kts 152°
2026-04-27 03:57 -37.16402 175.55069 25 ft 0 kts 174°
2026-04-27 03:59 -37.16403 175.55069 25 ft 1 kts 178°
2026-04-27 03:59 -37.16415 175.55063 25 ft 1 kts 216°
2026-04-27 03:59 -37.16420 175.55009 24 ft 9 kts 321°
2026-04-27 04:00 -37.16412 175.55005 24 ft 0 kts 340°
2026-04-27 04:01 -37.16395 175.54996 24 ft 17 kts 336°
2026-04-27 04:01 -37.16132 175.54866 22 ft 64 kts 338°
2026-04-27 04:01 -37.15673 175.54578 148 ft 77 kts 324°
2026-04-27 04:01 -37.15181 175.54178 277 ft 85 kts 325°
2026-04-27 04:02 -37.14759 175.53682 483 ft 85 kts 309°
2026-04-27 04:02 -37.14420 175.53059 676 ft 85 kts 289°
2026-04-27 04:02 -37.14234 175.52338 846 ft 87 kts 283°
2026-04-27 04:02 -37.14010 175.51607 1012 ft 90 kts 288°
2026-04-27 04:03 -37.13768 175.50847 1163 ft 93 kts 293°
2026-04-27 04:03 -37.13439 175.50125 1290 ft 99 kts 294°
2026-04-27 04:03 -37.13100 175.49344 1422 ft 101 kts 294°
2026-04-27 04:03 -37.12759 175.48546 1498 ft 109 kts 295°
2026-04-27 04:04 -37.12246 175.47786 1496 ft 118 kts 314°
2026-04-27 04:04 -37.11631 175.47089 1493 ft 121 kts 316°
2026-04-27 04:04 -37.10995 175.46373 1491 ft 123 kts 316°
2026-04-27 04:04 -37.10355 175.45654 1491 ft 123 kts 316°
2026-04-27 04:05 -37.09707 175.44933 1492 ft 124 kts 316°
2026-04-27 04:05 -37.09055 175.44212 1493 ft 124 kts 316°
2026-04-27 04:05 -37.08404 175.43494 1493 ft 124 kts 316°
2026-04-27 04:05 -37.07905 175.42630 1495 ft 122 kts 296°
2026-04-27 04:06 -37.07535 175.41669 1494 ft 122 kts 291°
2026-04-27 04:06 -37.07192 175.40689 1494 ft 121 kts 286°
2026-04-27 04:06 -37.06952 175.39681 1493 ft 121 kts 282°
2026-04-27 04:07 -37.06598 175.37628 1487 ft 120 kts 276°
2026-04-27 04:07 -37.06464 175.36595 1485 ft 120 kts 271°
2026-04-27 04:07 -37.06422 175.35542 1483 ft 120 kts 269°
2026-04-27 04:07 -37.06389 175.34499 1481 ft 120 kts 269°
2026-04-27 04:08 -37.06356 175.33499 1642 ft 108 kts 269°
2026-04-27 04:08 -37.06319 175.32582 1814 ft 102 kts 268°
2026-04-27 04:08 -37.06277 175.31711 1977 ft 99 kts 269°
2026-04-27 04:08 -37.06240 175.30862 2137 ft 98 kts 268°
2026-04-27 04:09 -37.06205 175.29962 2187 ft 107 kts 269°
2026-04-27 04:09 -37.06145 175.29005 2187 ft 114 kts 274°
2026-04-27 04:09 -37.06048 175.28044 2319 ft 107 kts 274°
2026-04-27 04:09 -37.05950 175.27135 2483 ft 102 kts 274°
2026-04-27 04:10 -37.05855 175.26256 2576 ft 106 kts 273°
2026-04-27 04:10 -37.05758 175.25352 2743 ft 100 kts 274°
2026-04-27 04:10 -37.05667 175.24521 2950 ft 93 kts 273°
2026-04-27 04:10 -37.05580 175.23715 3071 ft 98 kts 274°
2026-04-27 04:11 -37.05484 175.22781 2999 ft 116 kts 275°
2026-04-27 04:11 -37.05257 175.21765 2912 ft 125 kts 289°
2026-04-27 04:11 -37.04919 175.20728 2816 ft 129 kts 290°
2026-04-27 04:11 -37.04568 175.19672 2721 ft 130 kts 290°
2026-04-27 04:12 -37.04222 175.18634 2686 ft 127 kts 290°
2026-04-27 04:12 -37.03875 175.17609 2612 ft 129 kts 290°
2026-04-27 04:12 -37.03521 175.16563 2508 ft 131 kts 290°
2026-04-27 04:12 -37.03035 175.15593 2398 ft 133 kts 311°
2026-04-27 04:13 -37.02349 175.14796 2293 ft 134 kts 316°
2026-04-27 04:13 -37.01638 175.14046 2182 ft 134 kts 318°
2026-04-27 04:13 -37.00919 175.13309 2077 ft 133 kts 318°
2026-04-27 04:13 -37.00193 175.12573 1965 ft 133 kts 319°
2026-04-27 04:14 -36.99472 175.11845 1857 ft 133 kts 319°
2026-04-27 04:14 -36.98753 175.11124 1755 ft 132 kts 319°
2026-04-27 04:14 -36.98042 175.10399 1658 ft 132 kts 318°
2026-04-27 04:14 -36.97583 175.09447 1550 ft 128 kts 276°
2026-04-27 04:15 -36.97698 175.08354 1418 ft 129 kts 249°
2026-04-27 04:15 -36.98087 175.07309 1222 ft 132 kts 240°
2026-04-27 04:15 -36.98541 175.06294 1032 ft 133 kts 239°
2026-04-27 04:15 -36.98986 175.05313 980 ft 125 kts 239°
2026-04-27 04:16 -36.99110 175.04283 971 ft 123 kts 278°
2026-04-27 04:16 -36.98855 175.03259 979 ft 120 kts 286°
2026-04-27 04:16 -36.98661 175.02322 972 ft 103 kts 263°
2026-04-27 04:16 -36.98900 175.01541 975 ft 92 kts 231°
2026-04-27 04:17 -36.99459 175.01138 993 ft 96 kts 185°
2026-04-27 04:17 -37.00123 175.00893 870 ft 99 kts 202°
2026-04-27 04:17 -37.00647 175.00409 833 ft 95 kts 213°
2026-04-27 04:17 -37.01138 174.99849 641 ft 88 kts 218°
2026-04-27 04:18 -37.01547 174.99358 466 ft 75 kts 221°
2026-04-27 04:18 -37.01889 174.98933 341 ft 63 kts 226°
2026-04-27 04:18 -37.02216 174.98546 275 ft 65 kts 220°
2026-04-27 04:18 -37.02539 174.98141 205 ft 63 kts 221°
2026-04-27 04:19 -37.02838 174.97765 129 ft 54 kts 226°
2026-04-27 04:19 -37.03031 174.97517 120 ft 15 kts 214°
2026-04-27 04:19 -37.03090 174.97444 120 ft 11 kts 225°
2026-04-27 04:19 -37.03134 174.97412 120 ft 0 kts 176°
2026-04-27 04:20 -37.03146 174.97414 120 ft 0 kts 165°
2026-04-27 04:20 -37.03149 174.97415 120 ft 1 kts 162°
2026-04-27 04:20 -37.03155 174.97418 120 ft 0 kts 153°
2026-04-27 04:20 -37.03169 174.97430 120 ft 4 kts 154°
2026-04-27 04:21 -37.03202 174.97401 120 ft 10 kts 228°
2026-04-27 04:21 -37.03263 174.97327 120 ft 12 kts 227°
2026-04-27 04:21 -37.03316 174.97253 121 ft 14 kts 228°
2026-04-27 04:21 -37.03383 174.97172 121 ft 12 kts 228°
2026-04-27 04:22 -37.03461 174.97075 119 ft 19 kts 227°
2026-04-27 04:22 -37.03540 174.96970 117 ft 10 kts 229°
2026-04-27 04:22 -37.03581 174.96960 117 ft 6 kts 137°
2026-04-27 04:22 -37.03599 174.96980 117 ft 5 kts 139°
2026-04-27 04:23 -37.03642 174.97009 118 ft 4 kts 212°
2026-04-27 04:23 -37.03646 174.97005 118 ft 0 kts 223°
2026-04-27 04:33 -37.03650 174.96999 118 ft 2 kts 243°
2026-04-27 04:34 -37.03627 174.96971 118 ft 13 kts 338°
2026-04-27 04:34 -37.03541 174.96979 117 ft 6 kts 40°
2026-04-27 04:34 -37.03503 174.97014 118 ft 11 kts 38°
2026-04-27 04:34 -37.03429 174.97115 120 ft 23 kts 36°
2026-04-27 04:35 -37.03281 174.97302 120 ft 33 kts 45°
2026-04-27 04:35 -37.03108 174.97517 121 ft 35 kts 45°
2026-04-27 04:35 -37.02964 174.97696 118 ft 25 kts 43°
2026-04-27 04:35 -37.02905 174.97775 118 ft 13 kts 44°
2026-04-27 04:36 -37.02826 174.97868 120 ft 15 kts 15°
2026-04-27 04:36 -37.02816 174.97788 118 ft 8 kts 227°
2026-04-27 04:36 -37.02817 174.97784 118 ft 0 kts 227°
2026-04-27 04:38 -37.02918 174.97659 118 ft 47 kts 225°
2026-04-27 04:38 -37.03228 174.97272 201 ft 70 kts 218°
2026-04-27 04:38 -37.03577 174.96849 422 ft 67 kts 211°
2026-04-27 04:39 -37.03944 174.96518 649 ft 60 kts 214°
2026-04-27 04:39 -37.04269 174.96294 730 ft 62 kts 175°
2026-04-27 04:39 -37.04688 174.96104 866 ft 69 kts 208°
2026-04-27 04:39 -37.05080 174.95763 989 ft 77 kts 213°
2026-04-27 04:40 -37.05539 174.95340 1119 ft 84 kts 208°
2026-04-27 04:40 -37.05981 174.94814 1224 ft 91 kts 236°
2026-04-27 04:40 -37.06092 174.94009 1327 ft 99 kts 272°
2026-04-27 04:40 -37.05936 174.93162 1438 ft 101 kts 277°
2026-04-27 04:41 -37.05659 174.92299 1466 ft 111 kts 298°
2026-04-27 04:41 -37.05130 174.91550 1465 ft 115 kts 312°
2026-04-27 04:41 -37.04551 174.90895 1458 ft 111 kts 314°
2026-04-27 04:41 -37.03976 174.90263 1318 ft 105 kts 320°
2026-04-27 04:42 -37.03305 174.89914 1184 ft 102 kts 335°
2026-04-27 04:42 -37.02702 174.89569 1164 ft 86 kts 321°
2026-04-27 04:42 -37.02233 174.89194 1168 ft 74 kts 314°
2026-04-27 04:42 -37.02036 174.88716 1170 ft 54 kts 253°
2026-04-27 04:43 -37.02346 174.88417 1104 ft 57 kts 211°
2026-04-27 04:43 -37.02546 174.88017 1188 ft 53 kts 238°
2026-04-27 04:43 -37.02720 174.87558 1201 ft 69 kts 239°
2026-04-27 04:43 -37.02867 174.86935 1317 ft 81 kts 248°
2026-04-27 04:44 -37.02963 174.86188 1401 ft 93 kts 259°
2026-04-27 04:44 -37.03010 174.85332 1449 ft 101 kts 257°
2026-04-27 04:44 -37.03110 174.84431 1473 ft 106 kts 250°
2026-04-27 04:44 -37.03270 174.83505 1466 ft 111 kts 251°
2026-04-27 04:45 -37.03278 174.82510 1307 ft 127 kts 285°
2026-04-27 04:45 -37.02537 174.82092 969 ft 130 kts 36°
2026-04-27 04:45 -37.02108 174.82893 908 ft 101 kts 51°
2026-04-27 04:45 -37.01662 174.83524 841 ft 97 kts 46°
2026-04-27 04:46 -37.01184 174.84119 869 ft 93 kts 39°
2026-04-27 04:46 -37.00697 174.84670 852 ft 95 kts 35°
2026-04-27 04:46 -37.00152 174.85118 860 ft 95 kts 32°
2026-04-27 04:46 -36.99631 174.85686 811 ft 98 kts 37°
2026-04-27 04:47 -36.99116 174.86285 792 ft 99 kts 46°
2026-04-27 04:47 -36.98620 174.86780 792 ft 94 kts 347°
2026-04-27 04:47 -36.98564 174.86194 639 ft 89 kts 224°
2026-04-27 04:47 -36.98928 174.85568 612 ft 86 kts 233°
2026-04-27 04:48 -36.99263 174.84933 569 ft 86 kts 237°
2026-04-27 04:48 -36.99538 174.84242 519 ft 88 kts 240°
2026-04-27 04:48 -36.99780 174.83559 508 ft 85 kts 242°
2026-04-27 04:48 -37.00019 174.82877 467 ft 87 kts 239°
2026-04-27 04:49 -37.00254 174.82161 387 ft 90 kts 246°
2026-04-27 04:49 -37.00467 174.81398 255 ft 97 kts 249°
2026-04-27 04:49 -37.00676 174.80585 107 ft 100 kts 248°
2026-04-27 04:49 -37.00899 174.79782 36 ft 96 kts 246°
2026-04-27 04:50 -37.01108 174.79068 169 ft 80 kts 230°
2026-04-27 04:50 -37.01390 174.78677 471 ft 64 kts 156°
2026-04-27 04:50 -37.01440 174.79361 464 ft 97 kts 66°
2026-04-27 04:50 -37.01155 174.80188 494 ft 110 kts 65°
2026-04-27 04:51 -37.00868 174.81110 540 ft 115 kts 74°
2026-04-27 04:51 -37.00587 174.82036 639 ft 114 kts 60°
2026-04-27 04:51 -37.00197 174.82907 748 ft 113 kts 54°
2026-04-27 04:51 -36.99835 174.83791 823 ft 113 kts 67°
2026-04-27 04:52 -36.99574 174.84682 948 ft 109 kts 66°
2026-04-27 04:52 -36.99211 174.85474 1060 ft 110 kts 23°
2026-04-27 04:52 -36.98745 174.84976 890 ft 113 kts 231°
2026-04-27 04:52 -36.99297 174.84267 757 ft 117 kts 218°
2026-04-27 04:53 -36.99773 174.83437 605 ft 122 kts 234°
2026-04-27 04:53 -37.00165 174.82529 494 ft 119 kts 246°
2026-04-27 04:53 -37.00458 174.81516 275 ft 122 kts 235°
2026-04-27 04:53 -37.00677 174.80580 107 ft 99 kts 242°
2026-04-27 04:54 -37.00865 174.79874 30 ft 68 kts 254°
2026-04-27 04:54 -37.00899 174.79443 25 ft 37 kts 275°
2026-04-27 04:54 -37.00826 174.79289 26 ft 17 kts 94°
2026-04-27 04:54 -37.00786 174.79431 26 ft 25 kts 76°
2026-04-27 04:55 -37.00705 174.79721 29 ft 43 kts 68°
2026-04-27 04:55 -37.00619 174.80045 34 ft 42 kts 76°
2026-04-27 04:55 -37.00474 174.80348 32 ft 34 kts
2026-04-27 04:55 -37.00357 174.80425 31 ft 12 kts 15°
2026-04-27 04:56 -37.00293 174.80429 31 ft 5 kts 344°
2026-04-27 04:56 -37.00284 174.80414 31 ft 2 kts 248°
2026-04-27 04:56 -37.00294 174.80377 31 ft 0 kts 253°